Time;durP1;ratioP1;P1;durP2;ratioP2;P2;SDS_P1;SDS_P2;PMS_P1;PMS_P2;Temp;Humidity;BMP_temperature;BMP_pressure;BME280_temperature;BME280_humidity;BME280_pressure;Samples;Min_cycle;Max_cycle;Signal;HPM_P1;HPM_P2
2022/08/12 00:44:59;;;;;;;6.68;5.22;;;;;;;18.08;65.24;100539.72;5043861;28;20027;-62
2022/08/12 00:47:24;;;;;;;6.97;5.25;;;;;;;18.06;65.44;100533.69;5043520;28;20025;-62
2022/08/12 00:49:51;;;;;;;6.88;5.50;;;;;;;18.02;65.27;100535.56;5043518;28;20024;-62
2022/08/12 00:52:19;;;;;;;8.50;5.38;;;;;;;18.04;66.39;100544.25;5043625;28;20357;-62
2022/08/12 00:54:49;;;;;;;6.82;5.40;;;;;;;17.96;66.82;100534.94;5051811;28;20194;-62
2022/08/12 00:57:23;;;;;;;9.48;5.22;;;;;;;17.59;67.04;100490.88;5061664;28;20037;-62
2022/08/12 00:59:53;;;;;;;7.60;5.78;;;;;;;17.93;66.72;100549.88;5043509;28;20029;-62
2022/08/12 01:02:29;;;;;;;10.45;5.78;;;;;;;17.94;67.12;100533.25;5072984;28;20024;-65
2022/08/12 01:13:15;;;;;;;7.85;5.32;;;;;;;17.56;67.07;100488.38;5076277;28;20025;-61
2022/08/12 01:15:44;;;;;;;10.95;5.72;;;;;;;17.80;66.81;100540.75;5078262;28;20017;-61
2022/08/12 01:18:12;;;;;;;6.18;5.53;;;;;;;17.86;66.46;100539.69;5073808;28;20071;-61
2022/08/12 01:20:52;;;;;;;9.82;6.05;;;;;;;17.84;66.48;100536.25;5056767;28;20092;-62
2022/08/12 01:23:55;;;;;;;7.90;5.78;;;;;;;17.81;66.82;100545.06;5049744;28;20024;-61
2022/08/12 01:26:23;;;;;;;8.60;6.03;;;;;;;17.58;67.15;100514.50;5073461;28;20089;-61
2022/08/12 01:28:56;;;;;;;9.10;6.55;;;;;;;17.53;66.48;100496.34;5063135;28;20033;-61
2022/08/12 01:31:22;;;;;;;10.13;5.75;;;;;;;17.72;66.84;100538.41;5063089;28;20033;-61
2022/08/12 01:34:10;;;;;;;10.82;6.18;;;;;;;17.51;67.32;100502.53;5055609;28;20033;-61
2022/08/12 01:36:51;;;;;;;8.32;5.75;;;;;;;17.52;67.43;100506.88;5051296;28;20347;-61
2022/08/12 01:39:20;;;;;;;6.40;5.55;;;;;;;17.80;66.97;100553.00;5051592;28;20037;-60
2022/08/12 01:41:55;;;;;;;11.25;6.57;;;;;;;17.58;67.23;100517.13;5057187;28;20032;-60
2022/08/12 01:44:21;;;;;;;7.57;6.32;;;;;;;17.81;66.72;100547.69;5069805;28;20017;-60
2022/08/12 01:46:50;;;;;;;9.20;6.20;;;;;;;17.82;66.81;100553.81;5074536;28;20369;-61
2022/08/12 01:49:34;;;;;;;8.32;6.28;;;;;;;17.77;67.75;100552.22;5069441;28;20036;-61
2022/08/12 01:52:03;;;;;;;7.53;6.20;;;;;;;17.43;66.79;100495.81;5064581;28;20333;-60
2022/08/12 01:54:44;;;;;;;7.65;6.35;;;;;;;17.38;67.94;100497.75;5069366;28;20050;-61
2022/08/12 01:57:17;;;;;;;9.25;5.80;;;;;;;17.59;67.37;100556.34;5057608;28;20025;-60
2022/08/12 01:59:58;;;;;;;8.30;5.70;;;;;;;17.22;67.58;100497.47;5067400;28;20458;-61
2022/08/12 02:02:35;;;;;;;9.18;6.15;;;;;;;17.40;68.30;100552.69;5065726;28;20120;-61
2022/08/12 02:11:22;;;;;;;6.70;6.00;;;;;;;17.13;68.66;100502.16;5073622;28;20033;-62
2022/08/12 02:14:11;;;;;;;7.68;6.30;;;;;;;17.30;69.43;100562.66;5069295;28;20020;-61
2022/08/12 02:16:40;;;;;;;9.65;6.20;;;;;;;17.31;68.94;100558.25;5049107;28;20199;-60
2022/08/12 02:19:34;;;;;;;8.90;6.13;;;;;;;17.35;69.03;100559.88;5083902;28;20036;-60
2022/08/12 02:22:10;;;;;;;8.93;6.80;;;;;;;17.30;69.11;100562.66;5055066;28;20029;-60
2022/08/12 02:24:37;;;;;;;9.75;6.40;;;;;;;17.03;69.76;100527.78;5049120;28;20026;-61
2022/08/12 02:27:07;;;;;;;10.32;6.25;;;;;;;16.88;69.88;100514.34;5058470;28;20025;-60
2022/08/12 02:29:34;;;;;;;10.85;6.38;;;;;;;16.93;70.28;100515.94;5064279;28;20218;-60
2022/08/12 02:32:01;;;;;;;7.20;6.43;;;;;;;17.27;70.19;100573.22;5050226;28;20043;-60
2022/08/12 02:34:28;;;;;;;8.68;6.43;;;;;;;17.29;69.62;100571.41;5089177;28;20020;-60
2022/08/12 02:36:56;;;;;;;9.68;6.40;;;;;;;17.27;69.61;100556.66;5056914;28;20017;-61
2022/08/12 02:39:25;;;;;;;9.40;6.75;;;;;;;16.95;70.05;100519.38;5059565;28;20325;-61
2022/08/12 02:41:53;;;;;;;8.20;7.05;;;;;;;17.21;70.14;100571.66;5068920;28;20128;-60
2022/08/12 02:44:22;;;;;;;11.68;6.45;;;;;;;16.89;70.69;100525.69;5071644;28;20030;-61
2022/08/12 02:46:53;;;;;;;11.82;6.50;;;;;;;16.98;70.73;100546.28;5074028;28;20360;-60
2022/08/12 02:49:30;;;;;;;9.57;6.35;;;;;;;16.96;70.95;100508.84;5069103;28;20028;-61
2022/08/12 02:51:58;;;;;;;11.68;8.15;;;;;;;17.32;70.52;100576.53;5085106;28;20101;-60
2022/08/12 02:54:25;;;;;;;8.93;6.68;;;;;;;17.33;70.68;100566.91;5076958;28;20040;-60
2022/08/12 02:56:51;;;;;;;11.35;6.95;;;;;;;17.39;70.42;100570.16;5073962;28;20224;-60
2022/08/12 02:59:25;;;;;;;9.38;6.90;;;;;;;17.42;70.89;100583.16;5083086;28;20029;-61
2022/08/12 03:01:54;;;;;;;9.93;7.22;;;;;;;17.46;70.24;100565.56;5065821;28;20041;-61
2022/08/12 03:04:35;;;;;;;8.93;6.53;;;;;;;17.47;70.62;100569.03;5046108;28;20022;-61
2022/08/12 03:07:13;;;;;;;13.88;6.90;;;;;;;17.43;71.28;100570.94;5045744;28;20029;-62
2022/08/12 03:09:58;;;;;;;8.05;6.15;;;;;;;17.16;71.46;100523.88;5046096;28;20029;-62
2022/08/12 03:12:25;;;;;;;9.18;6.38;;;;;;;17.47;71.31;100566.41;5045623;28;20093;-60
2022/08/12 03:14:54;;;;;;;12.40;6.85;;;;;;;17.23;70.04;100514.88;5045439;28;20040;-62
2022/08/12 03:17:31;;;;;;;10.13;6.47;;;;;;;17.60;71.16;100565.09;5045341;28;20088;-62
2022/08/12 03:19:59;;;;;;;9.45;6.55;;;;;;;17.58;71.11;100564.28;5045492;28;20079;-62
2022/08/12 03:22:25;;;;;;;10.20;6.60;;;;;;;17.56;71.42;100564.31;5060754;28;20372;-61
2022/08/12 03:24:53;;;;;;;10.98;6.30;;;;;;;17.24;70.57;100505.25;5076187;28;20024;-61
2022/08/12 03:27:19;;;;;;;13.20;6.75;;;;;;;17.65;70.29;100563.13;5074609;28;20025;-61
2022/08/12 03:29:49;;;;;;;11.50;6.43;;;;;;;17.61;70.55;100553.66;5065204;28;20028;-62
2022/08/12 03:32:17;;;;;;;10.85;5.93;;;;;;;17.44;70.16;100504.53;5063205;28;20217;-62
2022/08/12 03:34:48;;;;;;;9.10;6.68;;;;;;;17.81;70.31;100560.78;5045251;28;20022;-62
2022/08/12 03:37:14;;;;;;;10.57;5.97;;;;;;;17.82;70.63;100552.03;5045171;28;20033;-62
2022/08/12 03:39:42;;;;;;;7.85;6.30;;;;;;;17.84;70.27;100558.09;5072248;28;20043;-61
2022/08/12 03:42:29;;;;;;;10.93;6.65;;;;;;;17.91;70.71;100562.22;5066250;28;20068;-62
2022/08/12 04:01:56;;;;;;;10.02;5.95;;;;;;;18.42;68.21;100562.84;5044548;28;20055;-62
2022/08/12 04:04:23;;;;;;;9.55;6.05;;;;;;;18.51;67.54;100573.88;5083277;28;20099;-62
2022/08/12 04:06:50;;;;;;;8.85;6.00;;;;;;;18.58;67.85;100568.34;5077471;28;20052;-62
2022/08/12 04:09:19;;;;;;;7.85;6.28;;;;;;;18.48;67.30;100539.91;5073429;28;20078;-62
2022/08/12 04:14:31;;;;;;;9.40;5.75;;;;;;;18.79;66.84;100563.13;5044421;28;20070;-62
2022/08/12 04:16:57;;;;;;;7.13;5.78;;;;;;;18.87;65.64;100563.69;5044425;28;20029;-62
2022/08/12 04:19:23;;;;;;;7.75;5.47;;;;;;;18.91;66.08;100564.41;5048444;28;20025;-62
2022/08/12 04:21:49;;;;;;;8.43;6.55;;;;;;;18.96;65.80;100565.09;5064171;28;20021;-62
2022/08/12 04:24:17;;;;;;;9.65;6.05;;;;;;;19.08;64.38;100564.56;5053074;28;20025;-61
2022/08/12 04:26:42;;;;;;;7.97;6.25;;;;;;;19.17;64.34;100568.56;5044103;28;20021;-63
2022/08/12 04:29:09;;;;;;;11.00;6.90;;;;;;;19.22;64.28;100561.31;5045393;28;20087;-62
2022/08/12 04:31:40;;;;;;;9.88;6.05;;;;;;;19.29;64.50;100564.56;5084093;28;20027;-62
2022/08/12 04:34:12;;;;;;;9.02;6.15;;;;;;;19.30;64.25;100551.34;5048583;28;20336;-62
2022/08/12 04:36:40;;;;;;;7.80;6.20;;;;;;;19.45;63.73;100562.97;5043920;28;20226;-62
2022/08/12 04:39:08;;;;;;;10.10;6.03;;;;;;;19.52;63.79;100557.44;5056732;28;20113;-61
2022/08/12 04:41:36;;;;;;;11.30;6.47;;;;;;;19.62;63.95;100563.97;5059410;28;20071;-62
2022/08/12 04:44:02;;;;;;;7.20;6.00;;;;;;;19.70;62.59;100561.84;5052959;28;20021;-63
2022/08/12 04:46:28;;;;;;;9.50;6.28;;;;;;;19.79;62.39;100564.09;5043630;28;20036;-61
2022/08/12 04:48:54;;;;;;;9.40;6.55;;;;;;;19.86;61.21;100563.81;5042988;28;20029;-62
2022/08/12 04:51:21;;;;;;;9.60;6.28;;;;;;;19.97;61.90;100561.56;5049587;28;20049;-62
2022/08/12 04:53:47;;;;;;;8.05;6.10;;;;;;;19.96;nan;100550.16;5054900;28;20021;-63
2022/08/12 04:56:14;;;;;;;9.90;6.40;;;;;;;20.13;61.72;100554.63;5064802;28;20059;-62
2022/08/12 04:58:40;;;;;;;7.80;6.45;;;;;;;20.26;61.98;100556.69;5063021;28;20035;-62
2022/08/12 05:01:06;;;;;;;8.85;5.95;;;;;;;20.55;61.74;100555.28;5046630;28;20044;-63
2022/08/12 05:03:36;;;;;;;10.18;6.05;;;;;;;20.97;60.37;100546.19;5056534;28;20025;-63
2022/08/12 05:06:03;;;;;;;9.93;6.35;;;;;;;21.73;58.18;100550.16;5055553;28;20029;-63
2022/08/12 05:08:29;;;;;;;9.50;6.07;;;;;;;22.44;55.83;100562.13;5047399;28;20025;-63
2022/08/12 05:10:56;;;;;;;9.35;6.25;;;;;;;22.57;53.49;100534.09;5055346;28;20032;-62
2022/08/12 05:13:30;;;;;;;10.05;5.85;;;;;;;22.60;51.34;100556.81;5063331;28;20036;-63
2022/08/12 05:15:56;;;;;;;7.70;5.68;;;;;;;22.63;52.83;100548.72;5077434;28;20032;-62
2022/08/12 05:18:21;;;;;;;9.88;5.70;;;;;;;22.79;53.35;100556.59;5062408;28;20025;-63
2022/08/12 05:20:47;;;;;;;6.53;5.63;;;;;;;22.89;53.09;100557.75;5059196;28;20247;-63
2022/08/12 05:23:16;;;;;;;10.15;5.43;;;;;;;22.62;52.45;100551.44;5081472;28;20078;-61
2022/08/12 05:25:44;;;;;;;10.57;5.68;;;;;;;22.65;53.38;100540.72;5043230;28;20036;-62
2022/08/12 05:28:11;;;;;;;5.60;4.38;;;;;;;22.52;52.52;100554.63;5077037;28;20091;-62
2022/08/12 05:30:38;;;;;;;4.22;3.83;;;;;;;22.54;51.74;100557.16;5070642;28;20033;-61
2022/08/12 05:33:05;;;;;;;8.60;5.07;;;;;;;22.47;53.61;100561.94;5054079;28;20030;-61
2022/08/12 05:35:38;;;;;;;12.20;5.13;;;;;;;22.36;53.50;100522.09;5042907;28;20092;-60
2022/08/12 05:40:50;;;;;;;7.40;5.05;;;;;;;22.71;54.28;100551.75;5042999;28;20056;-61
2022/08/12 05:43:16;;;;;;;11.45;5.40;;;;;;;22.61;54.18;100537.38;5060542;28;20057;-60
2022/08/12 05:45:42;;;;;;;9.88;5.32;;;;;;;22.80;54.41;100553.00;5056955;28;20037;-60
2022/08/12 05:48:07;;;;;;;7.95;5.50;;;;;;;22.83;54.88;100552.84;5042912;28;20036;-61
2022/08/12 05:50:34;;;;;;;11.05;5.53;;;;;;;22.83;54.83;100546.69;5042856;28;20037;-60
2022/08/12 05:53:00;;;;;;;10.60;5.75;;;;;;;22.75;54.64;100548.00;5042867;28;20056;-60
2022/08/12 05:55:26;;;;;;;7.40;5.05;;;;;;;22.88;55.16;100557.84;5068856;28;20025;-60
2022/08/12 05:57:54;;;;;;;12.20;5.63;;;;;;;22.96;54.40;100550.31;5048413;28;20056;-62
2022/08/12 06:00:24;;;;;;;8.43;4.68;;;;;;;23.04;54.95;100547.22;5057477;28;20033;-61
2022/08/12 06:02:55;;;;;;;8.93;5.53;;;;;;;22.82;54.44;100548.50;5057123;28;20314;-61
2022/08/12 06:05:22;;;;;;;6.35;5.35;;;;;;;22.66;53.95;100558.25;5044373;28;20079;-62
2022/08/12 06:07:48;;;;;;;9.02;5.47;;;;;;;22.97;53.99;100559.09;5061529;28;20056;-61
2022/08/12 06:10:18;;;;;;;10.55;5.70;;;;;;;23.07;54.44;100557.59;5051582;28;20321;-61
2022/08/12 06:12:47;;;;;;;9.68;5.47;;;;;;;23.02;53.29;100554.41;5062757;28;20029;-61
2022/08/12 06:15:19;;;;;;;8.43;5.22;;;;;;;23.10;53.11;100550.34;5062596;28;20031;-61
2022/08/12 06:17:46;;;;;;;6.75;5.25;;;;;;;23.24;53.52;100546.03;5057620;28;20021;-61
2022/08/12 06:20:15;;;;;;;7.90;5.40;;;;;;;23.33;53.37;100555.19;5042471;28;20029;-61
2022/08/12 06:22:46;;;;;;;6.95;4.60;;;;;;;23.37;52.23;100562.88;5042628;28;20033;-61
2022/08/12 06:25:17;;;;;;;10.77;5.30;;;;;;;23.36;50.52;100547.94;5042700;28;20022;-62
2022/08/12 06:27:47;;;;;;;9.90;4.93;;;;;;;23.44;50.59;100553.63;5042666;28;20025;-62
2022/08/12 06:30:19;;;;;;;9.93;5.45;;;;;;;23.49;50.58;100557.78;5042592;28;20028;-62
2022/08/12 06:32:46;;;;;;;;;;;;;;;23.51;49.23;100538.22;5045142;28;20079;-61
2022/08/12 06:35:16;;;;;;;9.00;5.05;;;;;;;23.54;50.63;100538.00;5046150;28;19905;-62
2022/08/12 06:37:45;;;;;;;10.52;5.05;;;;;;;23.55;48.98;100547.66;5046068;28;20045;-62
2022/08/12 06:40:12;;;;;;;9.50;4.88;;;;;;;23.30;48.00;100502.53;5044937;28;20025;-61
2022/08/12 06:42:50;;;;;;;9.48;4.70;;;;;;;23.75;48.64;100542.94;5063167;28;20063;-61
2022/08/12 06:45:20;;;;;;;7.97;5.18;;;;;;;23.82;47.91;100540.75;5062807;28;20029;-62
2022/08/12 06:47:47;;;;;;;9.15;6.47;;;;;;;23.89;48.22;100540.28;5065865;28;20033;-62
2022/08/12 06:50:17;;;;;;;9.07;5.55;;;;;;;23.99;47.97;100547.66;5065421;28;20025;-63
2022/08/12 06:52:45;;;;;;;8.00;4.63;;;;;;;24.02;48.40;100542.16;5065905;28;20039;-62
2022/08/12 06:55:14;;;;;;;7.35;5.38;;;;;;;24.07;48.07;100540.91;5074684;28;20051;-63
2022/08/12 06:58:02;;;;;;;9.60;4.40;;;;;;;23.90;47.99;100499.66;5054915;28;20092;-62
2022/08/12 07:00:32;;;;;;;12.40;5.82;;;;;;;23.93;46.90;100498.63;5055671;28;20187;-62
2022/08/12 07:03:00;;;;;;;9.27;5.20;;;;;;;23.99;46.95;100502.66;5058595;28;20297;-62
2022/08/12 07:05:26;;;;;;;9.40;4.28;;;;;;;24.18;44.81;100542.00;5045608;28;20055;-62
2022/08/12 07:07:58;;;;;;;9.00;4.00;;;;;;;24.17;44.15;100535.00;5045750;28;20025;-63
2022/08/12 07:10:27;;;;;;;7.68;3.97;;;;;;;24.29;45.04;100539.53;5053319;28;20033;-63
2022/08/12 07:12:53;;;;;;;9.13;4.35;;;;;;;24.40;45.56;100530.84;5065518;28;20047;-62
2022/08/12 07:15:25;;;;;;;6.72;4.45;;;;;;;24.45;44.78;100536.72;5065554;28;20052;-63
2022/08/12 07:17:59;;;;;;;7.78;4.30;;;;;;;24.26;45.79;100490.25;5065423;28;20029;-63
2022/08/12 07:20:30;;;;;;;5.38;3.67;;;;;;;24.57;45.61;100538.56;5063354;28;20028;-63
2022/08/12 07:23:03;;;;;;;5.88;4.22;;;;;;;24.64;45.21;100537.22;5063506;28;20032;-63
2022/08/12 07:25:30;;;;;;;12.65;3.15;;;;;;;24.69;44.04;100526.31;5046486;28;20242;-62
2022/08/12 07:28:02;;;;;;;5.13;3.08;;;;;;;24.83;43.89;100533.34;5045191;28;20030;-62
2022/08/12 07:30:33;;;;;;;5.65;3.60;;;;;;;24.77;42.76;100539.91;5055128;28;20322;-62
2022/08/12 07:33:00;;;;;;;4.63;2.88;;;;;;;24.84;42.20;100534.19;5059739;28;20339;-61
2022/08/12 07:35:31;;;;;;;3.63;2.85;;;;;;;24.60;42.62;100490.69;5062498;28;20337;-60
2022/08/12 07:37:59;;;;;;;6.20;3.40;;;;;;;24.96;43.82;100538.66;5058172;28;20268;-61
2022/08/12 07:40:26;;;;;;;4.57;2.97;;;;;;;24.88;42.09;100539.16;5064316;28;20446;-61
2022/08/12 07:42:51;;;;;;;4.32;3.05;;;;;;;24.99;43.25;100541.09;5057971;28;20028;-61
2022/08/12 07:45:19;;;;;;;9.95;3.90;;;;;;;24.97;43.15;100541.19;5057949;28;20032;-62
2022/08/12 07:47:46;;;;;;;6.22;3.22;;;;;;;24.98;42.75;100545.56;5049093;28;20080;-62
2022/08/12 07:50:15;;;;;;;4.45;3.17;;;;;;;24.81;42.59;100508.72;5065025;28;20040;-62
2022/08/12 07:52:44;;;;;;;6.03;3.78;;;;;;;25.01;43.37;100540.97;5064776;28;20044;-62
2022/08/12 07:55:11;;;;;;;6.38;3.10;;;;;;;25.10;43.44;100551.81;5070392;28;20021;-62
2022/08/12 07:57:52;;;;;;;5.95;2.97;;;;;;;25.09;43.04;100547.44;5060194;28;20036;-62
2022/08/12 08:00:19;;;;;;;5.72;3.80;;;;;;;25.11;43.45;100542.03;5055992;28;20366;-63
2022/08/12 08:02:44;;;;;;;9.00;3.35;;;;;;;25.08;43.24;100513.97;5048241;28;20388;-61
2022/08/12 08:05:11;;;;;;;5.00;3.72;;;;;;;25.31;43.49;100536.25;5049019;28;20101;-64
2022/08/12 08:07:37;;;;;;;8.45;3.30;;;;;;;25.36;43.01;100538.56;5039140;28;20079;-61
2022/08/12 08:10:09;;;;;;;6.65;3.60;;;;;;;25.31;42.95;100528.28;5068446;28;20062;-61
2022/08/12 08:12:56;;;;;;;3.97;3.42;;;;;;;25.41;42.86;100531.16;5062614;28;20040;-60
2022/08/12 08:15:25;;;;;;;8.23;3.47;;;;;;;25.42;43.18;100518.72;5073653;28;20217;-59
2022/08/12 08:18:03;;;;;;;8.20;3.30;;;;;;;25.25;43.73;100478.28;5073353;28;20021;-59
2022/08/12 08:20:33;;;;;;;8.63;3.63;;;;;;;25.60;43.38;100527.19;5048099;28;20056;-60
2022/08/12 08:23:07;;;;;;;5.85;3.83;;;;;;;25.50;43.04;100513.75;5069420;28;20092;-60
2022/08/12 08:25:37;;;;;;;12.10;4.13;;;;;;;25.60;42.16;100525.38;5043117;28;20033;-60
2022/08/12 08:28:10;;;;;;;11.75;4.50;;;;;;;25.53;41.28;100510.88;5059002;28;20025;-60
2022/08/12 08:30:44;;;;;;;5.82;3.38;;;;;;;25.43;41.91;100473.53;5064004;28;20075;-60
2022/08/12 08:33:11;;;;;;;7.38;3.92;;;;;;;25.78;41.98;100523.22;5071284;28;20032;-59
2022/08/12 08:35:38;;;;;;;7.75;3.78;;;;;;;25.56;41.55;100518.59;5062356;28;20070;-59
2022/08/12 08:38:12;;;;;;;5.47;3.97;;;;;;;25.56;41.81;100517.75;5043748;28;20072;-60
2022/08/12 08:43:25;;;;;;;8.40;4.10;;;;;;;25.55;40.72;100521.38;5081359;28;20024;-61
2022/08/12 08:45:51;;;;;;;5.20;3.30;;;;;;;25.80;41.66;100518.66;5057731;28;20033;-61
2022/08/12 08:48:17;;;;;;;7.80;3.90;;;;;;;25.87;41.42;100516.41;5058591;28;20245;-61
2022/08/12 08:50:44;;;;;;;10.07;3.22;;;;;;;26.03;42.23;100512.69;5075658;28;20109;-62
2022/08/12 08:53:11;;;;;;;10.75;3.92;;;;;;;26.15;41.89;100511.75;5059320;28;20317;-61
2022/08/12 08:55:36;;;;;;;4.50;3.25;;;;;;;26.09;40.76;100498.94;5055206;28;20066;-61
2022/08/12 08:58:02;;;;;;;7.43;2.97;;;;;;;26.20;40.28;100508.78;5053833;28;20092;-59
2022/08/12 09:00:29;;;;;;;6.97;3.25;;;;;;;26.29;40.52;100505.44;5056391;28;20271;-62
2022/08/12 09:02:54;;;;;;;5.85;3.40;;;;;;;26.30;39.24;100505.31;5053250;28;20099;-62
2022/08/12 09:05:20;;;;;;;6.38;3.40;;;;;;;26.41;39.06;100509.84;5083357;28;20032;-62
2022/08/12 09:07:48;;;;;;;4.15;3.30;;;;;;;26.51;39.43;100502.84;5076640;28;20025;-62
2022/08/12 09:10:18;;;;;;;7.20;3.22;;;;;;;26.49;39.59;100469.38;5064729;28;20052;-63
2022/08/12 09:15:34;;;;;;;5.85;3.03;;;;;;;26.55;37.53;100508.81;5060445;28;20045;-63
2022/08/12 09:17:59;;;;;;;8.50;2.92;;;;;;;26.64;37.17;100501.94;5068851;28;20309;-63
2022/08/12 09:20:28;;;;;;;12.20;3.40;;;;;;;26.66;37.87;100473.41;5082103;28;20060;-63
2022/08/12 09:22:55;;;;;;;6.55;2.90;;;;;;;26.67;36.53;100483.94;5083256;28;20024;-64
2022/08/12 09:25:30;;;;;;;7.28;3.25;;;;;;;26.92;37.71;100503.38;5077499;28;20031;-63
2022/08/12 09:28:03;;;;;;;7.05;3.05;;;;;;;26.96;37.61;100491.50;5076464;28;20074;-62
2022/08/12 09:30:29;;;;;;;5.45;3.17;;;;;;;27.01;37.74;100493.81;5070617;28;20021;-62
2022/08/12 09:32:56;;;;;;;4.10;2.78;;;;;;;27.11;37.95;100488.63;5043136;28;20044;-62
2022/08/12 09:35:26;;;;;;;6.07;3.30;;;;;;;27.16;37.14;100491.75;5074699;28;20329;-63
2022/08/12 09:37:55;;;;;;;5.85;3.10;;;;;;;27.00;36.59;100489.47;5040678;28;20517;-62
2022/08/12 09:40:22;;;;;;;5.68;3.40;;;;;;;26.99;36.77;100488.63;5045522;28;20225;-62
2022/08/12 09:45:33;;;;;;;12.23;3.50;;;;;;;26.98;36.67;100486.06;5057237;28;20326;-62
2022/08/12 09:48:07;;;;;;;4.25;2.83;;;;;;;26.85;36.80;100462.25;5023431;28;20245;-62
2022/08/12 09:50:34;;;;;;;3.80;2.80;;;;;;;26.87;36.42;100485.09;5044299;28;20029;-62
2022/08/12 09:53:04;;;;;;;7.40;3.30;;;;;;;26.52;35.53;100430.16;5062319;28;20096;-62
2022/08/12 09:55:31;;;;;;;6.00;2.60;;;;;;;26.91;36.39;100482.19;5068002;28;20052;-62
2022/08/12 09:57:57;;;;;;;6.40;2.70;;;;;;;26.95;36.38;100473.88;5075539;28;20123;-63
2022/08/12 10:00:24;;;;;;;3.47;2.60;;;;;;;26.99;37.03;100470.00;5065834;28;20025;-63
2022/08/12 10:03:09;;;;;;;3.88;2.60;;;;;;;26.97;36.21;100469.28;5049350;28;20095;-62
2022/08/12 10:05:40;;;;;;;5.43;2.80;;;;;;;26.81;37.01;100428.91;5083040;28;20028;-62
2022/08/12 10:08:10;;;;;;;4.65;2.53;;;;;;;27.09;37.14;100470.13;5086734;28;20143;-62
2022/08/12 10:13:41;;;;;;;5.93;2.60;;;;;;;27.11;37.03;100452.25;5066699;28;20052;-62
2022/08/12 10:16:30;;;;;;;4.10;2.97;;;;;;;27.11;36.63;100446.91;5066410;28;20037;-61
2022/08/12 10:19:01;;;;;;;5.05;2.38;;;;;;;26.93;36.82;100406.66;5066597;28;20029;-62
2022/08/12 10:21:35;;;;;;;5.25;2.60;;;;;;;27.12;36.76;100458.41;5066633;28;20028;-62
2022/08/12 10:24:22;;;;;;;7.65;2.72;;;;;;;26.97;36.58;100434.69;5066321;28;20053;-61
2022/08/12 10:29:35;;;;;;;5.75;2.97;;;;;;;27.06;36.67;100445.59;5066543;28;20029;-62
2022/08/12 10:32:11;;;;;;;8.65;2.83;;;;;;;27.02;36.22;100437.88;5048630;28;20092;-62
2022/08/12 10:34:38;;;;;;;7.25;2.85;;;;;;;27.07;36.14;100440.16;5065924;28;20387;-63
2022/08/12 10:37:05;;;;;;;8.02;2.80;;;;;;;26.96;36.32;100443.63;5052131;28;20040;-61
2022/08/12 10:39:35;;;;;;;6.45;2.67;;;;;;;26.99;37.38;100454.06;5045897;28;20037;-61
2022/08/12 10:44:59;;;;;;;3.53;2.58;;;;;;;27.18;37.57;100434.00;5046029;28;20033;-61
2022/08/12 10:47:29;;;;;;;3.03;2.33;;;;;;;27.14;36.96;100429.88;5045818;28;20033;-61
2022/08/12 10:49:55;;;;;;;5.88;2.47;;;;;;;27.18;37.45;100437.50;5065178;28;20063;-62
2022/08/12 10:52:24;;;;;;;4.07;2.70;;;;;;;27.14;36.92;100428.06;5065156;28;20033;-62
2022/08/12 10:54:51;;;;;;;5.28;2.58;;;;;;;27.16;37.84;100430.59;5059881;28;20318;-61
2022/08/12 10:57:17;;;;;;;7.22;2.85;;;;;;;27.06;36.47;100424.31;5071675;28;20020;-62
2022/08/12 10:59:43;;;;;;;6.05;2.90;;;;;;;26.89;36.07;100420.31;5080339;28;20040;-62
2022/08/12 11:02:12;;;;;;;5.85;2.70;;;;;;;26.82;36.97;100430.59;5044944;28;20029;-61
2022/08/12 11:04:42;;;;;;;4.10;2.80;;;;;;;26.90;37.24;100414.06;5081893;28;20039;-61
2022/08/12 11:07:08;;;;;;;4.85;2.63;;;;;;;26.86;36.50;100416.97;5056532;28;20017;-62
2022/08/12 11:09:36;;;;;;;3.80;2.55;;;;;;;27.03;37.01;100418.25;5063213;28;20024;-62
2022/08/12 11:12:05;;;;;;;5.90;2.70;;;;;;;26.80;37.02;100361.59;5063849;28;20033;-62
2022/08/12 11:14:35;;;;;;;3.33;2.42;;;;;;;27.10;37.51;100401.84;5065120;28;20059;-63
2022/08/12 11:17:06;;;;;;;4.32;2.45;;;;;;;27.12;37.66;100399.88;5064814;28;20036;-62
2022/08/12 11:19:34;;;;;;;4.20;2.25;;;;;;;27.09;37.36;100400.97;5064815;28;20036;-62
2022/08/12 11:22:00;;;;;;;3.83;2.40;;;;;;;27.12;36.67;100392.78;5064947;28;20025;-62
2022/08/12 11:24:26;;;;;;;7.22;2.55;;;;;;;27.01;36.20;100390.13;5073552;28;20086;-61
2022/08/12 11:26:53;;;;;;;5.15;2.95;;;;;;;27.04;36.27;100392.53;5076707;28;20025;-62
2022/08/12 11:29:21;;;;;;;5.88;2.70;;;;;;;27.04;37.27;100389.88;5044595;28;20329;-62
2022/08/12 11:31:47;;;;;;;6.03;2.60;;;;;;;27.03;36.83;100385.50;5044136;28;20039;-60
2022/08/12 11:34:14;;;;;;;3.80;2.50;;;;;;;27.11;36.69;100387.59;5048477;28;20067;-61
2022/08/12 11:36:53;;;;;;;4.85;2.20;;;;;;;26.92;36.46;100346.50;5061409;28;20029;-64
2022/08/12 11:39:20;;;;;;;3.63;2.42;;;;;;;27.15;37.45;100383.69;5064885;28;20253;-62
2022/08/12 11:41:46;;;;;;;3.75;2.50;;;;;;;27.13;36.81;100375.00;5061496;28;20025;-64
2022/08/12 11:44:11;;;;;;;7.68;2.50;;;;;;;27.12;37.38;100382.13;5061608;28;20017;-63
2022/08/12 11:46:39;;;;;;;6.40;2.40;;;;;;;27.03;36.17;100380.19;5066975;28;20017;-64
2022/08/12 11:49:06;;;;;;;4.85;2.50;;;;;;;27.00;36.51;100375.97;5063979;28;20020;-64
2022/08/12 11:51:33;;;;;;;3.22;2.10;;;;;;;27.11;36.92;100376.94;5059224;28;20027;-63
2022/08/12 11:53:58;;;;;;;3.80;2.40;;;;;;;27.05;35.74;100372.97;5061770;28;20029;-62
2022/08/12 11:56:24;;;;;;;3.67;2.03;;;;;;;27.10;35.37;100369.94;5064264;28;20045;-63
2022/08/12 11:58:49;;;;;;;5.32;2.40;;;;;;;27.12;36.55;100375.94;5044990;28;20029;-62
2022/08/12 12:01:16;;;;;;;2.55;1.98;;;;;;;27.18;36.70;100359.53;5044641;28;20018;-62
2022/08/12 12:03:41;;;;;;;8.30;3.05;;;;;;;27.14;35.87;100350.09;5044287;28;20092;-63
2022/08/12 12:06:07;;;;;;;5.70;2.47;;;;;;;27.03;35.79;100349.13;5054880;28;20036;-62
2022/08/12 12:08:33;;;;;;;4.07;2.40;;;;;;;27.06;35.28;100353.34;5081935;28;20043;-62
2022/08/12 12:10:58;;;;;;;4.55;2.45;;;;;;;27.10;35.48;100354.81;5056571;28;20044;-62
2022/08/12 12:13:24;;;;;;;3.83;2.13;;;;;;;27.19;36.04;100347.91;5064356;28;20140;-63
2022/08/12 12:15:50;;;;;;;5.40;2.40;;;;;;;27.17;37.10;100339.22;5064123;28;20079;-65
2022/08/12 12:18:20;;;;;;;3.92;2.20;;;;;;;27.22;35.84;100339.66;5063959;28;20045;-65
2022/08/12 12:20:45;;;;;;;3.17;2.35;;;;;;;27.25;36.23;100346.56;5064200;28;20300;-63
2022/08/12 12:23:11;;;;;;;5.43;2.47;;;;;;;27.25;35.19;100335.91;5044500;28;20104;-65
2022/08/12 12:25:36;;;;;;;5.57;2.75;;;;;;;27.15;36.58;100333.16;5057181;28;20029;-64
2022/08/12 12:28:02;;;;;;;5.18;2.65;;;;;;;27.02;35.26;100330.63;5044123;28;20022;-63
2022/08/12 12:30:27;;;;;;;4.05;2.33;;;;;;;27.12;36.11;100336.06;5043067;28;20091;-63
2022/08/12 12:32:53;;;;;;;4.43;2.55;;;;;;;27.02;35.69;100339.47;5051009;28;20032;-63
2022/08/12 12:35:19;;;;;;;7.20;2.58;;;;;;;27.05;35.24;100327.75;5080079;28;20040;-63
2022/08/12 12:37:59;;;;;;;5.30;2.40;;;;;;;26.86;36.24;100288.50;5045015;28;20045;-62
2022/08/12 12:40:26;;;;;;;3.65;2.35;;;;;;;27.16;35.48;100337.50;5043409;28;20113;-63
2022/08/12 12:42:53;;;;;;;3.53;2.35;;;;;;;27.18;36.45;100330.28;5056934;28;20029;-63
2022/08/12 12:45:19;;;;;;;8.57;3.58;;;;;;;27.11;35.89;100313.94;5060457;28;20024;-62
2022/08/12 12:48:01;;;;;;;4.53;2.20;;;;;;;27.25;35.92;100331.47;5048789;28;20036;-63
2022/08/12 12:50:35;;;;;;;5.63;2.55;;;;;;;26.89;35.66;100285.59;5062601;28;20029;-63
2022/08/12 12:53:01;;;;;;;5.32;2.38;;;;;;;27.11;35.59;100318.44;5057369;28;20033;-62
2022/08/12 12:55:27;;;;;;;9.05;2.70;;;;;;;27.08;35.26;100318.66;5059800;28;20033;-62
2022/08/12 12:57:53;;;;;;;4.30;2.63;;;;;;;27.10;35.84;100319.41;5074122;28;20029;-62
2022/08/12 13:00:20;;;;;;;2.42;2.20;;;;;;;27.17;35.62;100317.94;5070817;28;20074;-63
2022/08/12 13:02:56;;;;;;;5.15;2.50;;;;;;;27.12;35.71;100314.78;5083281;28;20028;-63
2022/08/12 13:05:34;;;;;;;5.03;2.45;;;;;;;27.08;35.78;100316.88;5064631;28;20097;-63
2022/08/12 13:08:01;;;;;;;7.05;2.58;;;;;;;27.03;35.76;100317.22;5043633;28;20040;-62
2022/08/12 13:10:28;;;;;;;3.60;2.58;;;;;;;27.03;35.78;100319.03;5057970;28;20088;-64
2022/08/12 13:12:54;;;;;;;5.55;2.45;;;;;;;27.09;35.80;100320.34;5063146;28;20045;-61